sensor_id;sensor_type;location;lat;lon;timestamp;P1;durP1;ratioP1;P2;durP2;ratioP2
3567;SDS011;1798;48.486;9.232;2023-03-14T00:01:34;4.90;;;2.10;;
3567;SDS011;1798;48.486;9.232;2023-03-14T00:04:03;5.88;;;2.38;;
3567;SDS011;1798;48.486;9.232;2023-03-14T00:06:30;5.53;;;2.53;;
3567;SDS011;1798;48.486;9.232;2023-03-14T00:08:57;6.00;;;2.70;;
3567;SDS011;1798;48.486;9.232;2023-03-14T00:11:26;7.82;;;2.60;;
3567;SDS011;1798;48.486;9.232;2023-03-14T00:13:55;5.30;;;2.20;;
3567;SDS011;1798;48.486;9.232;2023-03-14T00:16:40;6.70;;;2.10;;
3567;SDS011;1798;48.486;9.232;2023-03-14T00:19:07;4.63;;;2.00;;
3567;SDS011;1798;48.486;9.232;2023-03-14T00:21:33;5.10;;;2.40;;
3567;SDS011;1798;48.486;9.232;2023-03-14T00:24:00;9.60;;;2.17;;
3567;SDS011;1798;48.486;9.232;2023-03-14T00:26:27;4.70;;;2.00;;
3567;SDS011;1798;48.486;9.232;2023-03-14T00:28:54;5.73;;;2.40;;
3567;SDS011;1798;48.486;9.232;2023-03-14T00:31:21;4.40;;;1.80;;
3567;SDS011;1798;48.486;9.232;2023-03-14T00:38:56;4.55;;;2.10;;
3567;SDS011;1798;48.486;9.232;2023-03-14T00:41:23;6.20;;;2.60;;
3567;SDS011;1798;48.486;9.232;2023-03-14T00:43:49;5.13;;;2.20;;
3567;SDS011;1798;48.486;9.232;2023-03-14T00:46:17;5.85;;;2.05;;
3567;SDS011;1798;48.486;9.232;2023-03-14T00:48:46;4.80;;;2.00;;
3567;SDS011;1798;48.486;9.232;2023-03-14T01:14:51;5.72;;;2.33;;
3567;SDS011;1798;48.486;9.232;2023-03-14T01:17:18;5.55;;;2.10;;
3567;SDS011;1798;48.486;9.232;2023-03-14T01:19:48;7.20;;;2.15;;
3567;SDS011;1798;48.486;9.232;2023-03-14T01:22:20;5.80;;;2.10;;
3567;SDS011;1798;48.486;9.232;2023-03-14T01:25:05;5.30;;;1.90;;
3567;SDS011;1798;48.486;9.232;2023-03-14T01:27:33;5.03;;;2.38;;
3567;SDS011;1798;48.486;9.232;2023-03-14T01:30:01;4.50;;;1.90;;
3567;SDS011;1798;48.486;9.232;2023-03-14T01:32:28;4.78;;;1.95;;
3567;SDS011;1798;48.486;9.232;2023-03-14T01:34:58;4.53;;;1.90;;
3567;SDS011;1798;48.486;9.232;2023-03-14T01:55:38;7.32;;;2.17;;
3567;SDS011;1798;48.486;9.232;2023-03-14T01:58:05;6.60;;;1.67;;
3567;SDS011;1798;48.486;9.232;2023-03-14T02:00:38;7.68;;;2.30;;
3567;SDS011;1798;48.486;9.232;2023-03-14T02:05:39;5.20;;;1.98;;
3567;SDS011;1798;48.486;9.232;2023-03-14T02:08:08;5.70;;;2.55;;
3567;SDS011;1798;48.486;9.232;2023-03-14T02:10:39;8.63;;;2.30;;
3567;SDS011;1798;48.486;9.232;2023-03-14T02:13:07;4.95;;;1.92;;
3567;SDS011;1798;48.486;9.232;2023-03-14T02:15:34;6.30;;;2.13;;
3567;SDS011;1798;48.486;9.232;2023-03-14T02:18:02;5.57;;;2.38;;
3567;SDS011;1798;48.486;9.232;2023-03-14T02:20:31;7.43;;;2.20;;
3567;SDS011;1798;48.486;9.232;2023-03-14T02:23:00;5.35;;;2.05;;
3567;SDS011;1798;48.486;9.232;2023-03-14T02:25:29;6.20;;;2.20;;
3567;SDS011;1798;48.486;9.232;2023-03-14T02:28:02;5.95;;;2.40;;
3567;SDS011;1798;48.486;9.232;2023-03-14T02:30:29;4.57;;;1.98;;
3567;SDS011;1798;48.486;9.232;2023-03-14T02:32:58;5.20;;;2.30;;
3567;SDS011;1798;48.486;9.232;2023-03-14T02:35:27;6.32;;;2.13;;
3567;SDS011;1798;48.486;9.232;2023-03-14T02:40:45;5.60;;;2.60;;
3567;SDS011;1798;48.486;9.232;2023-03-14T02:43:14;5.68;;;2.40;;
3567;SDS011;1798;48.486;9.232;2023-03-14T02:45:42;6.00;;;2.50;;
3567;SDS011;1798;48.486;9.232;2023-03-14T02:48:11;6.85;;;2.70;;
3567;SDS011;1798;48.486;9.232;2023-03-14T02:50:40;5.57;;;2.45;;
3567;SDS011;1798;48.486;9.232;2023-03-14T02:53:08;6.22;;;2.80;;
3567;SDS011;1798;48.486;9.232;2023-03-14T02:55:35;5.00;;;2.38;;
3567;SDS011;1798;48.486;9.232;2023-03-14T02:58:08;5.43;;;2.50;;
3567;SDS011;1798;48.486;9.232;2023-03-14T03:00:38;5.38;;;2.33;;
3567;SDS011;1798;48.486;9.232;2023-03-14T03:03:04;5.85;;;2.25;;
3567;SDS011;1798;48.486;9.232;2023-03-14T03:05:31;9.23;;;2.30;;
3567;SDS011;1798;48.486;9.232;2023-03-14T03:07:58;5.65;;;2.65;;
3567;SDS011;1798;48.486;9.232;2023-03-14T03:10:36;5.40;;;2.50;;
3567;SDS011;1798;48.486;9.232;2023-03-14T03:18:16;5.55;;;2.03;;
3567;SDS011;1798;48.486;9.232;2023-03-14T03:20:43;6.30;;;2.20;;
3567;SDS011;1798;48.486;9.232;2023-03-14T03:23:10;6.40;;;2.50;;
3567;SDS011;1798;48.486;9.232;2023-03-14T03:25:37;6.05;;;2.40;;
3567;SDS011;1798;48.486;9.232;2023-03-14T03:28:04;6.38;;;2.45;;
3567;SDS011;1798;48.486;9.232;2023-03-14T03:30:33;7.60;;;2.70;;
3567;SDS011;1798;48.486;9.232;2023-03-14T03:33:00;5.32;;;2.45;;
3567;SDS011;1798;48.486;9.232;2023-03-14T03:38:05;6.55;;;2.83;;
3567;SDS011;1798;48.486;9.232;2023-03-14T03:40:31;6.40;;;2.17;;
3567;SDS011;1798;48.486;9.232;2023-03-14T03:42:59;6.17;;;2.40;;
3567;SDS011;1798;48.486;9.232;2023-03-14T03:45:26;6.57;;;2.50;;
3567;SDS011;1798;48.486;9.232;2023-03-14T04:00:49;9.85;;;2.80;;
3567;SDS011;1798;48.486;9.232;2023-03-14T04:03:16;5.90;;;2.60;;
3567;SDS011;1798;48.486;9.232;2023-03-14T04:05:42;6.15;;;2.40;;
3567;SDS011;1798;48.486;9.232;2023-03-14T04:08:09;10.05;;;2.70;;
3567;SDS011;1798;48.486;9.232;2023-03-14T04:10:36;6.70;;;2.78;;
3567;SDS011;1798;48.486;9.232;2023-03-14T04:13:03;7.05;;;2.50;;
3567;SDS011;1798;48.486;9.232;2023-03-14T04:15:30;5.72;;;2.33;;
3567;SDS011;1798;48.486;9.232;2023-03-14T04:17:58;6.40;;;2.33;;
3567;SDS011;1798;48.486;9.232;2023-03-14T04:20:25;6.97;;;2.70;;
3567;SDS011;1798;48.486;9.232;2023-03-14T04:22:51;5.70;;;2.60;;
3567;SDS011;1798;48.486;9.232;2023-03-14T04:25:18;6.20;;;2.70;;
3567;SDS011;1798;48.486;9.232;2023-03-14T04:27:45;7.57;;;2.60;;
3567;SDS011;1798;48.486;9.232;2023-03-14T04:30:22;7.05;;;2.70;;
3567;SDS011;1798;48.486;9.232;2023-03-14T04:38:07;6.50;;;2.63;;
3567;SDS011;1798;48.486;9.232;2023-03-14T04:40:33;7.25;;;2.53;;
3567;SDS011;1798;48.486;9.232;2023-03-14T04:43:02;5.85;;;2.65;;
3567;SDS011;1798;48.486;9.232;2023-03-14T04:45:29;10.27;;;2.25;;
3567;SDS011;1798;48.486;9.232;2023-03-14T04:48:01;7.17;;;2.20;;
3567;SDS011;1798;48.486;9.232;2023-03-14T04:50:34;10.23;;;3.05;;
3567;SDS011;1798;48.486;9.232;2023-03-14T04:53:01;6.60;;;2.80;;
3567;SDS011;1798;48.486;9.232;2023-03-14T04:55:28;8.60;;;2.57;;
3567;SDS011;1798;48.486;9.232;2023-03-14T04:57:55;6.43;;;2.80;;
3567;SDS011;1798;48.486;9.232;2023-03-14T05:00:21;9.40;;;3.08;;
3567;SDS011;1798;48.486;9.232;2023-03-14T05:02:52;11.07;;;3.20;;
3567;SDS011;1798;48.486;9.232;2023-03-14T05:05:22;7.80;;;2.80;;
3567;SDS011;1798;48.486;9.232;2023-03-14T05:13:07;8.55;;;3.47;;
3567;SDS011;1798;48.486;9.232;2023-03-14T05:15:33;6.93;;;2.60;;
3567;SDS011;1798;48.486;9.232;2023-03-14T05:18:00;8.23;;;3.10;;
3567;SDS011;1798;48.486;9.232;2023-03-14T05:20:26;8.93;;;2.70;;
3567;SDS011;1798;48.486;9.232;2023-03-14T05:22:53;8.48;;;2.90;;
3567;SDS011;1798;48.486;9.232;2023-03-14T05:25:20;7.38;;;2.28;;
3567;SDS011;1798;48.486;9.232;2023-03-14T05:27:46;8.05;;;3.58;;
3567;SDS011;1798;48.486;9.232;2023-03-14T05:30:14;6.22;;;2.67;;
3567;SDS011;1798;48.486;9.232;2023-03-14T05:32:41;7.05;;;2.60;;
3567;SDS011;1798;48.486;9.232;2023-03-14T05:35:15;7.32;;;2.90;;
3567;SDS011;1798;48.486;9.232;2023-03-14T05:38:06;13.75;;;2.88;;
3567;SDS011;1798;48.486;9.232;2023-03-14T05:40:33;9.13;;;3.00;;
3567;SDS011;1798;48.486;9.232;2023-03-14T05:43:01;10.27;;;2.97;;
3567;SDS011;1798;48.486;9.232;2023-03-14T06:01:06;8.20;;;2.90;;
3567;SDS011;1798;48.486;9.232;2023-03-14T06:03:33;7.63;;;3.00;;
3567;SDS011;1798;48.486;9.232;2023-03-14T06:06:00;7.53;;;2.72;;
3567;SDS011;1798;48.486;9.232;2023-03-14T06:08:27;9.82;;;3.10;;
3567;SDS011;1798;48.486;9.232;2023-03-14T06:10:56;10.05;;;2.60;;
3567;SDS011;1798;48.486;9.232;2023-03-14T06:13:23;10.00;;;2.80;;
3567;SDS011;1798;48.486;9.232;2023-03-14T06:15:49;8.60;;;2.42;;
3567;SDS011;1798;48.486;9.232;2023-03-14T06:18:17;14.57;;;2.40;;
3567;SDS011;1798;48.486;9.232;2023-03-14T06:20:44;13.10;;;2.60;;
3567;SDS011;1798;48.486;9.232;2023-03-14T06:23:11;18.80;;;2.80;;
3567;SDS011;1798;48.486;9.232;2023-03-14T06:25:37;16.70;;;2.83;;
3567;SDS011;1798;48.486;9.232;2023-03-14T06:28:04;8.00;;;2.40;;
3567;SDS011;1798;48.486;9.232;2023-03-14T06:30:31;10.20;;;2.30;;
3567;SDS011;1798;48.486;9.232;2023-03-14T06:32:57;7.95;;;2.47;;
3567;SDS011;1798;48.486;9.232;2023-03-14T06:35:25;9.07;;;2.03;;
3567;SDS011;1798;48.486;9.232;2023-03-14T06:37:52;6.38;;;2.25;;
3567;SDS011;1798;48.486;9.232;2023-03-14T06:40:18;8.48;;;2.60;;
3567;SDS011;1798;48.486;9.232;2023-03-14T06:42:45;6.53;;;2.27;;
3567;SDS011;1798;48.486;9.232;2023-03-14T06:45:13;14.93;;;2.47;;
3567;SDS011;1798;48.486;9.232;2023-03-14T06:47:39;8.03;;;2.20;;
3567;SDS011;1798;48.486;9.232;2023-03-14T06:50:07;12.32;;;3.00;;
3567;SDS011;1798;48.486;9.232;2023-03-14T06:52:35;14.75;;;2.88;;
3567;SDS011;1798;48.486;9.232;2023-03-14T06:55:02;7.80;;;2.20;;
3567;SDS011;1798;48.486;9.232;2023-03-14T06:57:29;12.70;;;2.35;;
3567;SDS011;1798;48.486;9.232;2023-03-14T06:59:56;10.30;;;2.35;;
3567;SDS011;1798;48.486;9.232;2023-03-14T07:02:23;8.18;;;2.00;;
3567;SDS011;1798;48.486;9.232;2023-03-14T07:04:53;8.30;;;2.40;;
3567;SDS011;1798;48.486;9.232;2023-03-14T07:07:26;7.75;;;2.17;;
3567;SDS011;1798;48.486;9.232;2023-03-14T07:30:12;7.40;;;2.27;;
3567;SDS011;1798;48.486;9.232;2023-03-14T07:32:44;11.43;;;2.30;;
3567;SDS011;1798;48.486;9.232;2023-03-14T07:35:27;8.98;;;2.30;;
3567;SDS011;1798;48.486;9.232;2023-03-14T07:37:53;5.38;;;2.25;;
3567;SDS011;1798;48.486;9.232;2023-03-14T07:40:20;12.48;;;2.22;;
3567;SDS011;1798;48.486;9.232;2023-03-14T07:42:47;7.88;;;1.90;;
3567;SDS011;1798;48.486;9.232;2023-03-14T07:45:16;8.05;;;2.30;;
3567;SDS011;1798;48.486;9.232;2023-03-14T08:00:35;10.20;;;2.90;;
3567;SDS011;1798;48.486;9.232;2023-03-14T08:03:02;7.07;;;2.40;;
3567;SDS011;1798;48.486;9.232;2023-03-14T08:05:48;5.90;;;2.10;;
3567;SDS011;1798;48.486;9.232;2023-03-14T08:08:16;4.70;;;2.00;;
3567;SDS011;1798;48.486;9.232;2023-03-14T08:10:45;6.05;;;2.03;;
3567;SDS011;1798;48.486;9.232;2023-03-14T08:15:54;5.40;;;2.00;;
3567;SDS011;1798;48.486;9.232;2023-03-14T08:18:21;6.15;;;2.20;;
3567;SDS011;1798;48.486;9.232;2023-03-14T08:20:49;6.35;;;2.28;;
3567;SDS011;1798;48.486;9.232;2023-03-14T08:23:20;6.85;;;2.20;;
3567;SDS011;1798;48.486;9.232;2023-03-14T08:25:50;7.65;;;2.05;;
3567;SDS011;1798;48.486;9.232;2023-03-14T08:28:18;7.40;;;2.30;;
3567;SDS011;1798;48.486;9.232;2023-03-14T08:30:48;7.93;;;2.05;;
3567;SDS011;1798;48.486;9.232;2023-03-14T08:56:32;7.93;;;2.60;;
3567;SDS011;1798;48.486;9.232;2023-03-14T08:58:59;6.97;;;2.20;;
3567;SDS011;1798;48.486;9.232;2023-03-14T09:01:28;5.38;;;2.30;;
3567;SDS011;1798;48.486;9.232;2023-03-14T09:04:13;11.85;;;2.20;;
3567;SDS011;1798;48.486;9.232;2023-03-14T09:06:40;10.13;;;2.30;;
3567;SDS011;1798;48.486;9.232;2023-03-14T09:09:07;10.55;;;2.33;;
3567;SDS011;1798;48.486;9.232;2023-03-14T09:11:35;7.28;;;2.55;;
3567;SDS011;1798;48.486;9.232;2023-03-14T09:14:02;6.30;;;2.10;;
3567;SDS011;1798;48.486;9.232;2023-03-14T09:16:28;5.20;;;2.00;;
3567;SDS011;1798;48.486;9.232;2023-03-14T09:18:55;7.43;;;2.10;;
3567;SDS011;1798;48.486;9.232;2023-03-14T09:21:24;8.18;;;2.35;;
3567;SDS011;1798;48.486;9.232;2023-03-14T09:23:51;5.57;;;2.13;;
3567;SDS011;1798;48.486;9.232;2023-03-14T09:26:20;6.43;;;1.85;;
3567;SDS011;1798;48.486;9.232;2023-03-14T09:28:53;5.45;;;2.00;;
3567;SDS011;1798;48.486;9.232;2023-03-14T09:33:57;6.05;;;2.10;;
3567;SDS011;1798;48.486;9.232;2023-03-14T09:36:24;5.47;;;1.90;;
3567;SDS011;1798;48.486;9.232;2023-03-14T09:38:50;6.28;;;2.05;;
3567;SDS011;1798;48.486;9.232;2023-03-14T09:41:18;6.40;;;2.28;;
3567;SDS011;1798;48.486;9.232;2023-03-14T09:49:07;5.55;;;2.13;;
3567;SDS011;1798;48.486;9.232;2023-03-14T09:51:37;5.88;;;1.90;;
3567;SDS011;1798;48.486;9.232;2023-03-14T09:54:04;11.60;;;2.00;;
3567;SDS011;1798;48.486;9.232;2023-03-14T09:56:32;9.45;;;2.25;;
3567;SDS011;1798;48.486;9.232;2023-03-14T09:59:03;6.30;;;1.90;;
3567;SDS011;1798;48.486;9.232;2023-03-14T10:01:37;6.10;;;2.10;;
3567;SDS011;1798;48.486;9.232;2023-03-14T10:04:10;7.00;;;2.00;;
3567;SDS011;1798;48.486;9.232;2023-03-14T10:09:10;14.15;;;2.40;;
3567;SDS011;1798;48.486;9.232;2023-03-14T10:11:39;9.47;;;2.17;;
3567;SDS011;1798;48.486;9.232;2023-03-14T10:14:06;8.05;;;2.75;;
3567;SDS011;1798;48.486;9.232;2023-03-14T10:16:35;5.82;;;2.15;;
3567;SDS011;1798;48.486;9.232;2023-03-14T10:29:27;7.90;;;2.10;;
3567;SDS011;1798;48.486;9.232;2023-03-14T10:31:56;5.72;;;2.20;;
3567;SDS011;1798;48.486;9.232;2023-03-14T10:34:26;5.72;;;2.00;;
3567;SDS011;1798;48.486;9.232;2023-03-14T10:36:56;6.25;;;2.20;;
3567;SDS011;1798;48.486;9.232;2023-03-14T10:39:28;7.00;;;2.30;;
3567;SDS011;1798;48.486;9.232;2023-03-14T10:42:05;8.03;;;2.30;;
3567;SDS011;1798;48.486;9.232;2023-03-14T10:44:39;4.95;;;2.00;;
3567;SDS011;1798;48.486;9.232;2023-03-14T10:47:12;5.57;;;2.00;;
3567;SDS011;1798;48.486;9.232;2023-03-14T11:02:43;8.95;;;2.00;;
3567;SDS011;1798;48.486;9.232;2023-03-14T11:05:18;5.30;;;2.10;;
3567;SDS011;1798;48.486;9.232;2023-03-14T11:07:51;5.70;;;2.30;;
3567;SDS011;1798;48.486;9.232;2023-03-14T11:10:21;5.00;;;1.83;;
3567;SDS011;1798;48.486;9.232;2023-03-14T11:12:56;4.70;;;1.90;;
3567;SDS011;1798;48.486;9.232;2023-03-14T11:15:32;6.15;;;2.40;;
3567;SDS011;1798;48.486;9.232;2023-03-14T11:18:16;5.57;;;2.05;;
3567;SDS011;1798;48.486;9.232;2023-03-14T11:20:58;7.45;;;2.10;;
3567;SDS011;1798;48.486;9.232;2023-03-14T11:23:36;5.40;;;2.08;;
3567;SDS011;1798;48.486;9.232;2023-03-14T11:33:56;6.55;;;2.10;;
3567;SDS011;1798;48.486;9.232;2023-03-14T11:36:24;9.10;;;2.22;;
3567;SDS011;1798;48.486;9.232;2023-03-14T11:38:59;4.93;;;2.17;;
3567;SDS011;1798;48.486;9.232;2023-03-14T11:41:48;5.65;;;2.00;;
3567;SDS011;1798;48.486;9.232;2023-03-14T11:44:23;6.70;;;2.00;;
3567;SDS011;1798;48.486;9.232;2023-03-14T11:46:55;7.35;;;2.20;;
3567;SDS011;1798;48.486;9.232;2023-03-14T11:49:30;5.75;;;2.10;;
3567;SDS011;1798;48.486;9.232;2023-03-14T11:51:59;4.97;;;2.17;;
3567;SDS011;1798;48.486;9.232;2023-03-14T11:54:31;6.50;;;2.00;;
3567;SDS011;1798;48.486;9.232;2023-03-14T12:04:49;5.43;;;2.00;;
3567;SDS011;1798;48.486;9.232;2023-03-14T12:07:21;6.32;;;2.00;;
3567;SDS011;1798;48.486;9.232;2023-03-14T12:09:50;5.10;;;1.97;;
3567;SDS011;1798;48.486;9.232;2023-03-14T12:12:18;4.85;;;1.85;;
3567;SDS011;1798;48.486;9.232;2023-03-14T12:20:03;7.65;;;2.17;;
3567;SDS011;1798;48.486;9.232;2023-03-14T12:22:33;5.77;;;2.20;;
3567;SDS011;1798;48.486;9.232;2023-03-14T12:25:03;5.32;;;1.95;;
3567;SDS011;1798;48.486;9.232;2023-03-14T12:27:45;4.63;;;1.90;;
3567;SDS011;1798;48.486;9.232;2023-03-14T12:30:22;7.65;;;2.22;;
3567;SDS011;1798;48.486;9.232;2023-03-14T12:36:10;4.65;;;1.83;;
3567;SDS011;1798;48.486;9.232;2023-03-14T12:39:01;9.70;;;2.10;;
3567;SDS011;1798;48.486;9.232;2023-03-14T12:49:21;7.50;;;2.10;;
3567;SDS011;1798;48.486;9.232;2023-03-14T12:51:59;5.20;;;1.95;;
3567;SDS011;1798;48.486;9.232;2023-03-14T12:54:38;6.40;;;2.30;;
3567;SDS011;1798;48.486;9.232;2023-03-14T12:57:13;11.35;;;2.15;;
3567;SDS011;1798;48.486;9.232;2023-03-14T13:04:54;5.70;;;2.20;;
3567;SDS011;1798;48.486;9.232;2023-03-14T13:08:02;4.95;;;2.10;;
3567;SDS011;1798;48.486;9.232;2023-03-14T13:10:27;4.30;;;1.70;;
3567;SDS011;1798;48.486;9.232;2023-03-14T13:12:55;4.50;;;2.00;;
3567;SDS011;1798;48.486;9.232;2023-03-14T13:15:25;7.18;;;2.60;;
3567;SDS011;1798;48.486;9.232;2023-03-14T13:23:02;6.40;;;2.20;;
3567;SDS011;1798;48.486;9.232;2023-03-14T13:25:29;5.40;;;2.10;;
3567;SDS011;1798;48.486;9.232;2023-03-14T13:27:59;4.93;;;1.92;;
3567;SDS011;1798;48.486;9.232;2023-03-14T13:30:28;7.72;;;2.70;;
3567;SDS011;1798;48.486;9.232;2023-03-14T13:32:56;7.30;;;2.25;;
3567;SDS011;1798;48.486;9.232;2023-03-14T13:35:29;5.53;;;2.10;;
3567;SDS011;1798;48.486;9.232;2023-03-14T13:38:18;7.30;;;2.20;;
3567;SDS011;1798;48.486;9.232;2023-03-14T13:40:46;4.85;;;2.30;;
3567;SDS011;1798;48.486;9.232;2023-03-14T13:43:14;8.20;;;2.30;;
3567;SDS011;1798;48.486;9.232;2023-03-14T13:45:48;7.05;;;2.15;;
3567;SDS011;1798;48.486;9.232;2023-03-14T13:48:18;7.53;;;2.60;;
3567;SDS011;1798;48.486;9.232;2023-03-14T13:50:53;5.10;;;2.20;;
3567;SDS011;1798;48.486;9.232;2023-03-14T14:09:27;8.80;;;2.38;;
3567;SDS011;1798;48.486;9.232;2023-03-14T14:11:59;8.50;;;2.90;;
3567;SDS011;1798;48.486;9.232;2023-03-14T14:32:38;12.48;;;2.50;;
3567;SDS011;1798;48.486;9.232;2023-03-14T14:35:06;8.20;;;2.80;;
3567;SDS011;1798;48.486;9.232;2023-03-14T14:37:40;6.57;;;2.35;;
3567;SDS011;1798;48.486;9.232;2023-03-14T14:40:09;6.13;;;2.58;;
3567;SDS011;1798;48.486;9.232;2023-03-14T14:58:14;6.72;;;2.33;;
3567;SDS011;1798;48.486;9.232;2023-03-14T15:00:50;9.80;;;2.40;;
3567;SDS011;1798;48.486;9.232;2023-03-14T15:03:19;7.70;;;2.70;;
3567;SDS011;1798;48.486;9.232;2023-03-14T15:05:45;5.70;;;2.47;;
3567;SDS011;1798;48.486;9.232;2023-03-14T15:08:12;9.63;;;3.10;;
3567;SDS011;1798;48.486;9.232;2023-03-14T15:10:39;11.27;;;2.90;;
3567;SDS011;1798;48.486;9.232;2023-03-14T15:13:06;8.53;;;2.70;;
3567;SDS011;1798;48.486;9.232;2023-03-14T15:15:34;8.57;;;3.00;;
3567;SDS011;1798;48.486;9.232;2023-03-14T15:18:01;7.07;;;3.20;;
3567;SDS011;1798;48.486;9.232;2023-03-14T15:20:33;8.93;;;3.05;;
3567;SDS011;1798;48.486;9.232;2023-03-14T15:23:00;7.30;;;3.20;;
3567;SDS011;1798;48.486;9.232;2023-03-14T15:25:27;8.82;;;3.10;;
3567;SDS011;1798;48.486;9.232;2023-03-14T15:35:40;9.57;;;2.90;;
3567;SDS011;1798;48.486;9.232;2023-03-14T15:38:09;6.50;;;2.60;;
3567;SDS011;1798;48.486;9.232;2023-03-14T15:40:37;10.68;;;3.10;;
3567;SDS011;1798;48.486;9.232;2023-03-14T15:43:08;9.68;;;3.22;;
3567;SDS011;1798;48.486;9.232;2023-03-14T15:45:35;11.15;;;3.05;;
3567;SDS011;1798;48.486;9.232;2023-03-14T15:48:02;12.50;;;3.17;;
3567;SDS011;1798;48.486;9.232;2023-03-14T15:53:03;8.77;;;2.80;;
3567;SDS011;1798;48.486;9.232;2023-03-14T15:55:30;9.02;;;3.10;;
3567;SDS011;1798;48.486;9.232;2023-03-14T15:57:57;9.13;;;3.10;;
3567;SDS011;1798;48.486;9.232;2023-03-14T16:00:24;8.25;;;3.20;;
3567;SDS011;1798;48.486;9.232;2023-03-14T16:02:51;9.70;;;2.60;;
3567;SDS011;1798;48.486;9.232;2023-03-14T16:05:18;8.23;;;2.80;;
3567;SDS011;1798;48.486;9.232;2023-03-14T16:07:45;6.43;;;2.92;;
3567;SDS011;1798;48.486;9.232;2023-03-14T16:10:14;14.52;;;3.40;;
3567;SDS011;1798;48.486;9.232;2023-03-14T16:12:41;7.95;;;2.83;;
3567;SDS011;1798;48.486;9.232;2023-03-14T16:15:09;6.80;;;2.90;;
3567;SDS011;1798;48.486;9.232;2023-03-14T16:17:36;6.30;;;2.90;;
3567;SDS011;1798;48.486;9.232;2023-03-14T16:20:05;9.20;;;3.00;;
3567;SDS011;1798;48.486;9.232;2023-03-14T16:22:33;11.50;;;2.90;;
3567;SDS011;1798;48.486;9.232;2023-03-14T16:25:02;14.88;;;3.20;;
3567;SDS011;1798;48.486;9.232;2023-03-14T16:27:31;6.45;;;2.88;;
3567;SDS011;1798;48.486;9.232;2023-03-14T16:29:58;10.63;;;3.42;;
3567;SDS011;1798;48.486;9.232;2023-03-14T16:32:33;10.20;;;2.90;;
3567;SDS011;1798;48.486;9.232;2023-03-14T16:35:03;16.10;;;3.50;;
3567;SDS011;1798;48.486;9.232;2023-03-14T16:40:10;9.35;;;3.25;;
3567;SDS011;1798;48.486;9.232;2023-03-14T16:42:39;11.02;;;3.03;;
3567;SDS011;1798;48.486;9.232;2023-03-14T16:45:07;9.05;;;3.30;;
3567;SDS011;1798;48.486;9.232;2023-03-14T16:47:41;8.70;;;3.10;;
3567;SDS011;1798;48.486;9.232;2023-03-14T16:50:09;7.05;;;2.90;;
3567;SDS011;1798;48.486;9.232;2023-03-14T16:55:12;8.95;;;3.22;;
3567;SDS011;1798;48.486;9.232;2023-03-14T16:57:40;13.70;;;3.73;;
3567;SDS011;1798;48.486;9.232;2023-03-14T17:00:07;10.10;;;2.80;;
3567;SDS011;1798;48.486;9.232;2023-03-14T17:02:41;10.32;;;3.30;;
3567;SDS011;1798;48.486;9.232;2023-03-14T17:05:08;9.07;;;3.03;;
3567;SDS011;1798;48.486;9.232;2023-03-14T17:07:35;20.38;;;3.20;;
3567;SDS011;1798;48.486;9.232;2023-03-14T17:10:03;11.13;;;3.17;;
3567;SDS011;1798;48.486;9.232;2023-03-14T17:12:31;10.40;;;3.10;;
3567;SDS011;1798;48.486;9.232;2023-03-14T17:14:59;12.55;;;3.20;;
3567;SDS011;1798;48.486;9.232;2023-03-14T17:17:27;14.80;;;3.78;;
3567;SDS011;1798;48.486;9.232;2023-03-14T17:19:54;12.90;;;3.60;;
3567;SDS011;1798;48.486;9.232;2023-03-14T17:22:22;9.73;;;3.63;;
3567;SDS011;1798;48.486;9.232;2023-03-14T17:24:50;9.32;;;3.75;;
3567;SDS011;1798;48.486;9.232;2023-03-14T17:27:17;11.85;;;4.30;;
3567;SDS011;1798;48.486;9.232;2023-03-14T17:29:50;13.00;;;4.20;;
3567;SDS011;1798;48.486;9.232;2023-03-14T17:32:22;8.05;;;3.38;;
3567;SDS011;1798;48.486;9.232;2023-03-14T17:34:50;13.25;;;4.55;;
3567;SDS011;1798;48.486;9.232;2023-03-14T17:37:18;8.85;;;3.60;;
3567;SDS011;1798;48.486;9.232;2023-03-14T17:39:45;12.73;;;3.67;;
3567;SDS011;1798;48.486;9.232;2023-03-14T17:42:12;10.15;;;3.40;;
3567;SDS011;1798;48.486;9.232;2023-03-14T17:44:39;8.43;;;3.33;;
3567;SDS011;1798;48.486;9.232;2023-03-14T17:47:07;8.90;;;3.45;;
3567;SDS011;1798;48.486;9.232;2023-03-14T17:49:39;10.95;;;3.47;;
3567;SDS011;1798;48.486;9.232;2023-03-14T17:52:07;9.10;;;3.60;;
3567;SDS011;1798;48.486;9.232;2023-03-14T17:54:36;22.03;;;4.50;;
3567;SDS011;1798;48.486;9.232;2023-03-14T17:57:04;13.15;;;3.95;;
3567;SDS011;1798;48.486;9.232;2023-03-14T17:59:32;13.00;;;4.10;;
3567;SDS011;1798;48.486;9.232;2023-03-14T18:02:03;9.80;;;3.40;;
3567;SDS011;1798;48.486;9.232;2023-03-14T18:09:45;9.30;;;3.60;;
3567;SDS011;1798;48.486;9.232;2023-03-14T18:12:12;13.73;;;4.15;;
3567;SDS011;1798;48.486;9.232;2023-03-14T18:14:39;14.68;;;4.30;;
3567;SDS011;1798;48.486;9.232;2023-03-14T18:17:08;12.68;;;3.80;;
3567;SDS011;1798;48.486;9.232;2023-03-14T18:19:36;11.80;;;3.47;;
3567;SDS011;1798;48.486;9.232;2023-03-14T18:22:03;10.15;;;3.83;;
3567;SDS011;1798;48.486;9.232;2023-03-14T18:24:30;11.30;;;3.63;;
3567;SDS011;1798;48.486;9.232;2023-03-14T18:26:59;9.52;;;3.50;;
3567;SDS011;1798;48.486;9.232;2023-03-14T18:29:29;9.52;;;3.40;;
3567;SDS011;1798;48.486;9.232;2023-03-14T18:31:57;12.15;;;3.60;;
3567;SDS011;1798;48.486;9.232;2023-03-14T18:34:25;10.55;;;3.70;;
3567;SDS011;1798;48.486;9.232;2023-03-14T18:36:57;10.10;;;3.60;;
3567;SDS011;1798;48.486;9.232;2023-03-14T18:39:30;9.48;;;3.30;;
3567;SDS011;1798;48.486;9.232;2023-03-14T18:44:38;10.05;;;3.40;;
3567;SDS011;1798;48.486;9.232;2023-03-14T18:47:06;7.10;;;2.80;;
3567;SDS011;1798;48.486;9.232;2023-03-14T18:49:34;10.00;;;3.58;;
3567;SDS011;1798;48.486;9.232;2023-03-14T18:52:01;9.90;;;4.05;;
3567;SDS011;1798;48.486;9.232;2023-03-14T18:54:28;9.07;;;3.53;;
3567;SDS011;1798;48.486;9.232;2023-03-14T18:56:57;9.50;;;3.35;;
3567;SDS011;1798;48.486;9.232;2023-03-14T19:02:04;11.57;;;3.40;;
3567;SDS011;1798;48.486;9.232;2023-03-14T19:04:32;12.20;;;3.22;;
3567;SDS011;1798;48.486;9.232;2023-03-14T19:06:59;9.10;;;3.60;;
3567;SDS011;1798;48.486;9.232;2023-03-14T19:09:32;11.43;;;3.90;;
3567;SDS011;1798;48.486;9.232;2023-03-14T19:12:03;13.15;;;4.00;;
3567;SDS011;1798;48.486;9.232;2023-03-14T19:14:33;10.63;;;3.60;;
3567;SDS011;1798;48.486;9.232;2023-03-14T19:17:00;13.35;;;3.80;;
3567;SDS011;1798;48.486;9.232;2023-03-14T19:19:29;8.07;;;3.10;;
3567;SDS011;1798;48.486;9.232;2023-03-14T19:34:49;9.90;;;3.60;;
3567;SDS011;1798;48.486;9.232;2023-03-14T19:37:15;8.88;;;3.67;;
3567;SDS011;1798;48.486;9.232;2023-03-14T19:39:42;11.52;;;3.42;;
3567;SDS011;1798;48.486;9.232;2023-03-14T19:42:33;11.25;;;3.80;;
3567;SDS011;1798;48.486;9.232;2023-03-14T19:45:00;9.80;;;3.70;;
3567;SDS011;1798;48.486;9.232;2023-03-14T19:47:27;9.55;;;3.60;;
3567;SDS011;1798;48.486;9.232;2023-03-14T19:49:55;13.32;;;4.15;;
3567;SDS011;1798;48.486;9.232;2023-03-14T19:52:23;8.07;;;3.17;;
3567;SDS011;1798;48.486;9.232;2023-03-14T19:54:50;14.55;;;3.50;;
3567;SDS011;1798;48.486;9.232;2023-03-14T19:57:18;11.48;;;3.97;;
3567;SDS011;1798;48.486;9.232;2023-03-14T19:59:45;10.80;;;3.92;;
3567;SDS011;1798;48.486;9.232;2023-03-14T20:02:15;8.73;;;3.30;;
3567;SDS011;1798;48.486;9.232;2023-03-14T20:10:00;10.20;;;3.60;;
3567;SDS011;1798;48.486;9.232;2023-03-14T20:12:28;11.80;;;3.87;;
3567;SDS011;1798;48.486;9.232;2023-03-14T20:14:55;8.30;;;3.53;;
3567;SDS011;1798;48.486;9.232;2023-03-14T20:17:30;14.32;;;4.00;;
3567;SDS011;1798;48.486;9.232;2023-03-14T20:25:02;8.80;;;3.60;;
3567;SDS011;1798;48.486;9.232;2023-03-14T20:27:31;9.77;;;3.30;;
3567;SDS011;1798;48.486;9.232;2023-03-14T20:42:59;11.50;;;4.00;;
3567;SDS011;1798;48.486;9.232;2023-03-14T20:45:26;11.48;;;3.00;;
3567;SDS011;1798;48.486;9.232;2023-03-14T20:50:29;14.93;;;4.40;;
3567;SDS011;1798;48.486;9.232;2023-03-14T20:52:56;12.23;;;4.32;;
3567;SDS011;1798;48.486;9.232;2023-03-14T20:55:29;15.88;;;4.63;;
3567;SDS011;1798;48.486;9.232;2023-03-14T21:02:59;9.50;;;3.47;;
3567;SDS011;1798;48.486;9.232;2023-03-14T21:05:25;10.18;;;3.83;;
3567;SDS011;1798;48.486;9.232;2023-03-14T21:07:52;13.02;;;3.92;;
3567;SDS011;1798;48.486;9.232;2023-03-14T21:10:19;15.88;;;4.38;;
3567;SDS011;1798;48.486;9.232;2023-03-14T21:12:46;13.45;;;4.47;;
3567;SDS011;1798;48.486;9.232;2023-03-14T21:20:20;12.85;;;5.15;;
3567;SDS011;1798;48.486;9.232;2023-03-14T21:22:50;13.73;;;4.88;;
3567;SDS011;1798;48.486;9.232;2023-03-14T21:25:17;15.82;;;4.90;;